sensor_id;sensor_type;location;lat;lon;timestamp;P1;P2;P0
72854;PMS7003;60991;51.278;22.550;2022-12-31T00:01:03;41.25;35.50;16.25
72854;PMS7003;60991;51.278;22.550;2022-12-31T00:02:35;38.50;35.00;19.25
72854;PMS7003;60991;51.278;22.550;2022-12-31T00:04:05;40.33;37.33;22.00
72854;PMS7003;60991;51.278;22.550;2022-12-31T00:05:35;41.33;34.67;22.00
72854;PMS7003;60991;51.278;22.550;2022-12-31T00:07:06;39.75;34.75;22.00
72854;PMS7003;60991;51.278;22.550;2022-12-31T00:08:36;35.33;34.67;20.67
72854;PMS7003;60991;51.278;22.550;2022-12-31T00:10:06;37.33;33.67;20.33
72854;PMS7003;60991;51.278;22.550;2022-12-31T00:11:37;38.00;32.75;20.75
72854;PMS7003;60991;51.278;22.550;2022-12-31T00:13:08;42.75;37.25;20.50
72854;PMS7003;60991;51.278;22.550;2022-12-31T00:14:39;46.75;38.50;24.75
72854;PMS7003;60991;51.278;22.550;2022-12-31T00:16:14;35.00;30.75;19.25
72854;PMS7003;60991;51.278;22.550;2022-12-31T00:17:47;42.00;34.25;23.00
72854;PMS7003;60991;51.278;22.550;2022-12-31T00:19:17;41.00;36.00;22.00
72854;PMS7003;60991;51.278;22.550;2022-12-31T00:20:47;41.00;31.00;20.00
72854;PMS7003;60991;51.278;22.550;2022-12-31T00:22:17;36.33;29.33;17.00
72854;PMS7003;60991;51.278;22.550;2022-12-31T00:23:47;41.33;35.33;20.67
72854;PMS7003;60991;51.278;22.550;2022-12-31T00:25:18;37.50;34.75;20.50
72854;PMS7003;60991;51.278;22.550;2022-12-31T00:26:48;32.25;27.25;17.00
72854;PMS7003;60991;51.278;22.550;2022-12-31T00:28:18;37.00;31.25;20.50
72854;PMS7003;60991;51.278;22.550;2022-12-31T00:29:49;30.33;30.00;17.33
72854;PMS7003;60991;51.278;22.550;2022-12-31T00:31:20;32.00;26.50;17.25
72854;PMS7003;60991;51.278;22.550;2022-12-31T00:32:52;34.75;31.25;18.00
72854;PMS7003;60991;51.278;22.550;2022-12-31T00:34:22;30.00;21.33;14.67
72854;PMS7003;60991;51.278;22.550;2022-12-31T00:35:53;35.25;29.50;17.00
72854;PMS7003;60991;51.278;22.550;2022-12-31T00:37:23;37.00;30.33;17.33
72854;PMS7003;60991;51.278;22.550;2022-12-31T00:38:54;33.00;29.33;18.33
72854;PMS7003;60991;51.278;22.550;2022-12-31T00:40:25;38.75;27.50;17.00
72854;PMS7003;60991;51.278;22.550;2022-12-31T00:41:58;29.75;26.25;15.25
72854;PMS7003;60991;51.278;22.550;2022-12-31T00:43:28;33.75;32.25;17.50
72854;PMS7003;60991;51.278;22.550;2022-12-31T00:44:58;31.75;29.75;16.75
72854;PMS7003;60991;51.278;22.550;2022-12-31T00:46:28;33.67;28.67;17.00
72854;PMS7003;60991;51.278;22.550;2022-12-31T00:47:58;31.67;28.33;17.33
72854;PMS7003;60991;51.278;22.550;2022-12-31T00:49:29;33.67;28.67;18.00
72854;PMS7003;60991;51.278;22.550;2022-12-31T00:50:59;32.67;26.67;14.67
72854;PMS7003;60991;51.278;22.550;2022-12-31T00:52:30;28.50;23.75;13.75
72854;PMS7003;60991;51.278;22.550;2022-12-31T00:54:01;24.67;22.33;14.00
72854;PMS7003;60991;51.278;22.550;2022-12-31T00:55:31;26.50;24.25;14.25
72854;PMS7003;60991;51.278;22.550;2022-12-31T00:57:01;27.67;22.33;17.00
72854;PMS7003;60991;51.278;22.550;2022-12-31T00:58:32;31.00;27.67;16.33
72854;PMS7003;60991;51.278;22.550;2022-12-31T01:00:03;27.00;25.75;17.25
72854;PMS7003;60991;51.278;22.550;2022-12-31T01:01:35;24.50;22.25;13.50
72854;PMS7003;60991;51.278;22.550;2022-12-31T01:03:07;24.75;22.25;14.25
72854;PMS7003;60991;51.278;22.550;2022-12-31T01:04:37;33.00;19.75;12.75
72854;PMS7003;60991;51.278;22.550;2022-12-31T01:06:08;26.50;22.00;14.25
72854;PMS7003;60991;51.278;22.550;2022-12-31T01:07:39;29.75;23.25;13.75
72854;PMS7003;60991;51.278;22.550;2022-12-31T01:09:10;27.00;19.67;13.00
72854;PMS7003;60991;51.278;22.550;2022-12-31T01:10:46;23.75;19.50;13.25
72854;PMS7003;60991;51.278;22.550;2022-12-31T01:12:18;15.75;9.25;1.00
72854;PMS7003;60991;51.278;22.550;2022-12-31T01:15:23;22.50;19.75;13.00
72854;PMS7003;60991;51.278;22.550;2022-12-31T01:16:53;29.00;23.33;14.00
72854;PMS7003;60991;51.278;22.550;2022-12-31T01:18:23;24.33;19.00;12.33
72854;PMS7003;60991;51.278;22.550;2022-12-31T01:19:53;22.00;17.00;11.00
72854;PMS7003;60991;51.278;22.550;2022-12-31T01:21:24;22.00;19.00;13.00
72854;PMS7003;60991;51.278;22.550;2022-12-31T01:22:54;23.25;17.50;10.75
72854;PMS7003;60991;51.278;22.550;2022-12-31T01:24:24;19.00;15.00;11.00
72854;PMS7003;60991;51.278;22.550;2022-12-31T01:25:54;16.33;12.33;10.33
72854;PMS7003;60991;51.278;22.550;2022-12-31T01:27:25;17.75;17.75;11.00
72854;PMS7003;60991;51.278;22.550;2022-12-31T01:28:55;22.67;18.00;13.33
72854;PMS7003;60991;51.278;22.550;2022-12-31T01:30:25;17.75;13.50;10.00
72854;PMS7003;60991;51.278;22.550;2022-12-31T01:31:55;21.00;20.25;13.50
72854;PMS7003;60991;51.278;22.550;2022-12-31T01:33:44;19.67;17.33;9.33
72854;PMS7003;60991;51.278;22.550;2022-12-31T01:35:15;24.50;18.75;12.25
72854;PMS7003;60991;51.278;22.550;2022-12-31T01:36:45;21.00;18.75;13.50
72854;PMS7003;60991;51.278;22.550;2022-12-31T01:38:15;17.00;14.00;10.00
72854;PMS7003;60991;51.278;22.550;2022-12-31T01:39:45;19.67;17.00;11.00
72854;PMS7003;60991;51.278;22.550;2022-12-31T01:41:17;16.33;16.33;10.00
72854;PMS7003;60991;51.278;22.550;2022-12-31T01:42:54;20.50;18.00;11.00
72854;PMS7003;60991;51.278;22.550;2022-12-31T01:45:58;17.00;16.25;10.25
72854;PMS7003;60991;51.278;22.550;2022-12-31T01:47:39;18.00;16.50;13.00
72854;PMS7003;60991;51.278;22.550;2022-12-31T01:49:25;23.50;17.25;10.50
72854;PMS7003;60991;51.278;22.550;2022-12-31T01:51:03;16.75;15.00;11.00
72854;PMS7003;60991;51.278;22.550;2022-12-31T01:52:37;19.00;15.75;11.50
72854;PMS7003;60991;51.278;22.550;2022-12-31T01:54:12;15.50;14.50;9.50
72854;PMS7003;60991;51.278;22.550;2022-12-31T01:55:48;24.75;18.25;11.50
72854;PMS7003;60991;51.278;22.550;2022-12-31T01:57:23;20.75;16.00;10.00
72854;PMS7003;60991;51.278;22.550;2022-12-31T01:58:55;18.50;15.25;11.00
72854;PMS7003;60991;51.278;22.550;2022-12-31T02:00:27;14.75;13.50;9.25
72854;PMS7003;60991;51.278;22.550;2022-12-31T02:01:58;16.00;16.00;10.00
72854;PMS7003;60991;51.278;22.550;2022-12-31T02:03:29;15.00;14.75;10.25
72854;PMS7003;60991;51.278;22.550;2022-12-31T02:05:01;18.00;17.25;10.75
72854;PMS7003;60991;51.278;22.550;2022-12-31T02:08:17;19.75;14.75;10.00
72854;PMS7003;60991;51.278;22.550;2022-12-31T02:09:49;15.75;15.75;9.50
72854;PMS7003;60991;51.278;22.550;2022-12-31T02:12:55;26.75;20.25;9.00
72854;PMS7003;60991;51.278;22.550;2022-12-31T02:14:31;19.50;18.50;10.75
72854;PMS7003;60991;51.278;22.550;2022-12-31T02:16:07;18.00;16.00;11.00
72854;PMS7003;60991;51.278;22.550;2022-12-31T02:17:55;16.00;11.75;8.00
72854;PMS7003;60991;51.278;22.550;2022-12-31T02:22:46;16.00;14.75;10.00
72854;PMS7003;60991;51.278;22.550;2022-12-31T02:26:52;15.25;14.50;10.00
72854;PMS7003;60991;51.278;22.550;2022-12-31T02:30:16;21.50;18.00;10.00
72854;PMS7003;60991;51.278;22.550;2022-12-31T02:31:55;23.00;19.25;12.00
72854;PMS7003;60991;51.278;22.550;2022-12-31T02:33:31;15.00;14.00;9.25
72854;PMS7003;60991;51.278;22.550;2022-12-31T02:35:14;16.00;15.25;9.75
72854;PMS7003;60991;51.278;22.550;2022-12-31T02:36:51;18.00;15.50;10.50
72854;PMS7003;60991;51.278;22.550;2022-12-31T02:38:30;15.00;13.50;9.00
72854;PMS7003;60991;51.278;22.550;2022-12-31T02:40:05;18.25;14.25;10.00
72854;PMS7003;60991;51.278;22.550;2022-12-31T02:41:38;17.00;14.75;9.75
72854;PMS7003;60991;51.278;22.550;2022-12-31T02:43:09;23.50;19.25;12.25
72854;PMS7003;60991;51.278;22.550;2022-12-31T02:44:40;17.50;15.75;11.50
72854;PMS7003;60991;51.278;22.550;2022-12-31T02:46:13;14.50;12.25;9.25
72854;PMS7003;60991;51.278;22.550;2022-12-31T02:51:52;15.25;11.75;6.00
72854;PMS7003;60991;51.278;22.550;2022-12-31T02:53:51;20.50;13.75;9.00
72854;PMS7003;60991;51.278;22.550;2022-12-31T02:55:54;19.25;15.00;9.25
72854;PMS7003;60991;51.278;22.550;2022-12-31T02:57:47;20.00;15.50;10.50
72854;PMS7003;60991;51.278;22.550;2022-12-31T02:59:54;16.50;16.00;9.75
72854;PMS7003;60991;51.278;22.550;2022-12-31T03:01:29;17.75;14.25;10.25
72854;PMS7003;60991;51.278;22.550;2022-12-31T03:03:03;24.00;21.25;11.00
72854;PMS7003;60991;51.278;22.550;2022-12-31T03:04:36;16.25;15.00;9.25
72854;PMS7003;60991;51.278;22.550;2022-12-31T03:06:08;14.00;13.25;7.75
72854;PMS7003;60991;51.278;22.550;2022-12-31T03:07:41;15.50;13.00;9.00
72854;PMS7003;60991;51.278;22.550;2022-12-31T03:09:12;20.50;17.50;8.50
72854;PMS7003;60991;51.278;22.550;2022-12-31T03:10:42;19.00;17.00;10.67
72854;PMS7003;60991;51.278;22.550;2022-12-31T03:12:13;23.25;16.75;9.50
72854;PMS7003;60991;51.278;22.550;2022-12-31T03:13:44;20.50;14.50;10.50
72854;PMS7003;60991;51.278;22.550;2022-12-31T03:15:15;24.33;17.67;10.00
72854;PMS7003;60991;51.278;22.550;2022-12-31T03:16:48;19.75;15.00;11.00
72854;PMS7003;60991;51.278;22.550;2022-12-31T03:18:18;19.00;15.25;9.25
72854;PMS7003;60991;51.278;22.550;2022-12-31T03:19:48;15.75;15.75;10.25
72854;PMS7003;60991;51.278;22.550;2022-12-31T03:21:19;18.25;17.75;12.25
72854;PMS7003;60991;51.278;22.550;2022-12-31T03:22:49;17.67;15.67;10.00
72854;PMS7003;60991;51.278;22.550;2022-12-31T03:24:21;15.67;14.00;9.00
72854;PMS7003;60991;51.278;22.550;2022-12-31T03:25:52;15.50;13.25;9.00
72854;PMS7003;60991;51.278;22.550;2022-12-31T03:27:23;15.75;15.00;10.50
72854;PMS7003;60991;51.278;22.550;2022-12-31T03:28:53;20.00;15.33;9.67
72854;PMS7003;60991;51.278;22.550;2022-12-31T03:30:24;15.67;14.67;10.00
72854;PMS7003;60991;51.278;22.550;2022-12-31T03:31:57;17.00;15.25;11.00
72854;PMS7003;60991;51.278;22.550;2022-12-31T03:33:31;14.75;14.50;10.25
72854;PMS7003;60991;51.278;22.550;2022-12-31T03:35:04;18.50;14.25;9.00
72854;PMS7003;60991;51.278;22.550;2022-12-31T03:36:35;20.50;18.00;11.00
72854;PMS7003;60991;51.278;22.550;2022-12-31T03:38:06;17.75;14.00;10.00
72854;PMS7003;60991;51.278;22.550;2022-12-31T03:39:36;16.50;14.50;9.00
72854;PMS7003;60991;51.278;22.550;2022-12-31T03:41:08;15.75;15.75;10.50
72854;PMS7003;60991;51.278;22.550;2022-12-31T03:42:39;14.00;14.00;9.00
72854;PMS7003;60991;51.278;22.550;2022-12-31T03:44:10;13.50;12.25;7.50
72854;PMS7003;60991;51.278;22.550;2022-12-31T03:45:40;17.25;14.75;10.00
72854;PMS7003;60991;51.278;22.550;2022-12-31T03:47:10;17.50;11.75;8.75
72854;PMS7003;60991;51.278;22.550;2022-12-31T03:48:41;19.50;13.00;10.00
72854;PMS7003;60991;51.278;22.550;2022-12-31T03:50:12;13.00;13.00;8.75
72854;PMS7003;60991;51.278;22.550;2022-12-31T03:51:44;12.50;12.50;9.75
72854;PMS7003;60991;51.278;22.550;2022-12-31T03:53:14;17.67;13.00;8.33
72854;PMS7003;60991;51.278;22.550;2022-12-31T03:54:44;14.50;12.75;9.00
72854;PMS7003;60991;51.278;22.550;2022-12-31T03:56:15;18.00;15.00;10.00
72854;PMS7003;60991;51.278;22.550;2022-12-31T03:57:45;19.00;14.00;10.67
72854;PMS7003;60991;51.278;22.550;2022-12-31T03:59:15;18.00;16.00;9.33
72854;PMS7003;60991;51.278;22.550;2022-12-31T04:00:49;18.33;14.00;9.00
72854;PMS7003;60991;51.278;22.550;2022-12-31T04:02:19;18.75;15.25;6.50
72854;PMS7003;60991;51.278;22.550;2022-12-31T04:03:49;14.00;12.50;10.00
72854;PMS7003;60991;51.278;22.550;2022-12-31T04:05:20;18.00;15.00;9.00
72854;PMS7003;60991;51.278;22.550;2022-12-31T04:06:54;15.75;14.75;9.50
72854;PMS7003;60991;51.278;22.550;2022-12-31T04:08:31;14.50;12.25;8.75
72854;PMS7003;60991;51.278;22.550;2022-12-31T04:10:05;10.67;8.67;6.33
72854;PMS7003;60991;51.278;22.550;2022-12-31T04:11:37;16.00;14.25;9.50
72854;PMS7003;60991;51.278;22.550;2022-12-31T04:13:08;16.33;12.33;9.33
72854;PMS7003;60991;51.278;22.550;2022-12-31T04:14:38;13.33;13.33;8.67
72854;PMS7003;60991;51.278;22.550;2022-12-31T04:16:08;11.50;10.00;6.50
72854;PMS7003;60991;51.278;22.550;2022-12-31T04:17:38;12.00;12.00;7.25
72854;PMS7003;60991;51.278;22.550;2022-12-31T04:19:09;13.75;13.50;8.25
72854;PMS7003;60991;51.278;22.550;2022-12-31T04:20:39;19.25;14.50;10.00
72854;PMS7003;60991;51.278;22.550;2022-12-31T04:22:09;14.33;13.67;7.33
72854;PMS7003;60991;51.278;22.550;2022-12-31T04:23:40;16.75;14.50;10.00
72854;PMS7003;60991;51.278;22.550;2022-12-31T04:25:10;16.75;15.00;10.00
72854;PMS7003;60991;51.278;22.550;2022-12-31T04:26:40;11.50;11.25;7.00
72854;PMS7003;60991;51.278;22.550;2022-12-31T04:28:10;17.33;15.67;10.33
72854;PMS7003;60991;51.278;22.550;2022-12-31T04:29:41;17.50;14.75;10.25
72854;PMS7003;60991;51.278;22.550;2022-12-31T04:31:11;12.50;12.00;10.00
72854;PMS7003;60991;51.278;22.550;2022-12-31T04:32:41;14.75;14.00;8.25
72854;PMS7003;60991;51.278;22.550;2022-12-31T04:34:11;21.33;14.00;8.33
72854;PMS7003;60991;51.278;22.550;2022-12-31T04:35:42;20.25;15.00;10.00
72854;PMS7003;60991;51.278;22.550;2022-12-31T04:37:12;15.25;15.25;9.50
72854;PMS7003;60991;51.278;22.550;2022-12-31T04:38:43;16.75;14.00;9.00
72854;PMS7003;60991;51.278;22.550;2022-12-31T04:40:13;20.50;15.75;10.75
72854;PMS7003;60991;51.278;22.550;2022-12-31T04:41:43;14.50;10.75;6.75
72854;PMS7003;60991;51.278;22.550;2022-12-31T04:43:16;15.00;14.00;9.00
72854;PMS7003;60991;51.278;22.550;2022-12-31T04:44:46;15.75;10.00;5.00
72854;PMS7003;60991;51.278;22.550;2022-12-31T04:46:21;19.25;13.25;9.75
72854;PMS7003;60991;51.278;22.550;2022-12-31T04:47:53;11.25;9.75;5.00
72854;PMS7003;60991;51.278;22.550;2022-12-31T04:49:26;19.00;12.33;8.33
72854;PMS7003;60991;51.278;22.550;2022-12-31T04:50:57;16.50;16.00;10.00
72854;PMS7003;60991;51.278;22.550;2022-12-31T04:52:27;15.00;15.00;10.00
72854;PMS7003;60991;51.278;22.550;2022-12-31T04:53:57;15.00;14.00;9.00
72854;PMS7003;60991;51.278;22.550;2022-12-31T04:55:28;12.50;12.50;8.25
72854;PMS7003;60991;51.278;22.550;2022-12-31T04:56:58;18.25;14.00;9.50
72854;PMS7003;60991;51.278;22.550;2022-12-31T04:58:28;21.50;17.25;10.75
72854;PMS7003;60991;51.278;22.550;2022-12-31T04:59:59;20.00;14.25;10.25
72854;PMS7003;60991;51.278;22.550;2022-12-31T05:01:29;17.00;13.00;7.00
72854;PMS7003;60991;51.278;22.550;2022-12-31T05:02:59;16.25;12.75;9.00
72854;PMS7003;60991;51.278;22.550;2022-12-31T05:04:29;23.00;14.33;8.33
72854;PMS7003;60991;51.278;22.550;2022-12-31T05:06:00;14.67;12.00;8.33
72854;PMS7003;60991;51.278;22.550;2022-12-31T05:07:32;13.25;10.50;7.00
72854;PMS7003;60991;51.278;22.550;2022-12-31T05:09:02;16.75;14.50;10.75
72854;PMS7003;60991;51.278;22.550;2022-12-31T05:10:32;13.50;10.50;6.75
72854;PMS7003;60991;51.278;22.550;2022-12-31T05:12:03;12.00;10.75;7.00
72854;PMS7003;60991;51.278;22.550;2022-12-31T05:13:33;20.00;16.00;11.00
72854;PMS7003;60991;51.278;22.550;2022-12-31T05:15:04;2.25;2.25;1.75
72854;PMS7003;60991;51.278;22.550;2022-12-31T05:16:35;16.50;14.75;8.25
72854;PMS7003;60991;51.278;22.550;2022-12-31T05:18:06;16.67;14.67;7.33
72854;PMS7003;60991;51.278;22.550;2022-12-31T05:19:36;15.00;13.25;8.25
72854;PMS7003;60991;51.278;22.550;2022-12-31T05:21:06;17.67;14.00;9.67
72854;PMS7003;60991;51.278;22.550;2022-12-31T05:22:36;12.25;12.25;8.25
72854;PMS7003;60991;51.278;22.550;2022-12-31T05:24:07;13.67;12.00;8.33
72854;PMS7003;60991;51.278;22.550;2022-12-31T05:25:37;16.25;13.75;10.25
72854;PMS7003;60991;51.278;22.550;2022-12-31T05:27:07;15.00;14.50;9.50
72854;PMS7003;60991;51.278;22.550;2022-12-31T05:28:37;12.33;9.33;7.00
72854;PMS7003;60991;51.278;22.550;2022-12-31T05:30:08;17.33;14.00;10.00
72854;PMS7003;60991;51.278;22.550;2022-12-31T05:31:39;19.00;12.50;8.00
72854;PMS7003;60991;51.278;22.550;2022-12-31T05:33:09;18.00;15.75;10.00
72854;PMS7003;60991;51.278;22.550;2022-12-31T05:34:39;13.00;13.00;9.00
72854;PMS7003;60991;51.278;22.550;2022-12-31T05:36:10;16.00;12.00;8.75
72854;PMS7003;60991;51.278;22.550;2022-12-31T05:37:40;15.00;14.75;8.00
72854;PMS7003;60991;51.278;22.550;2022-12-31T05:39:10;14.25;12.00;7.50
72854;PMS7003;60991;51.278;22.550;2022-12-31T05:40:40;14.25;11.75;8.25
72854;PMS7003;60991;51.278;22.550;2022-12-31T05:42:10;17.75;12.25;9.25
72854;PMS7003;60991;51.278;22.550;2022-12-31T05:43:44;17.00;16.00;10.00
72854;PMS7003;60991;51.278;22.550;2022-12-31T05:45:14;20.00;19.50;10.50
72854;PMS7003;60991;51.278;22.550;2022-12-31T05:46:44;13.50;12.50;7.50
72854;PMS7003;60991;51.278;22.550;2022-12-31T05:48:14;15.33;14.00;9.67
72854;PMS7003;60991;51.278;22.550;2022-12-31T05:49:45;17.75;14.00;7.50
72854;PMS7003;60991;51.278;22.550;2022-12-31T05:51:15;14.50;11.75;7.25
72854;PMS7003;60991;51.278;22.550;2022-12-31T05:52:45;12.67;10.67;8.33
72854;PMS7003;60991;51.278;22.550;2022-12-31T05:54:15;14.75;11.50;10.00
72854;PMS7003;60991;51.278;22.550;2022-12-31T05:55:46;14.67;8.33;2.00
72854;PMS7003;60991;51.278;22.550;2022-12-31T05:57:17;17.00;14.75;10.00
72854;PMS7003;60991;51.278;22.550;2022-12-31T05:58:47;19.50;15.00;10.50
72854;PMS7003;60991;51.278;22.550;2022-12-31T06:00:17;12.00;12.00;8.00
72854;PMS7003;60991;51.278;22.550;2022-12-31T06:01:47;16.00;11.50;7.00
72854;PMS7003;60991;51.278;22.550;2022-12-31T06:03:18;12.50;12.00;8.00
72854;PMS7003;60991;51.278;22.550;2022-12-31T06:04:48;11.33;11.00;8.33
72854;PMS7003;60991;51.278;22.550;2022-12-31T06:06:19;16.00;12.00;10.00
72854;PMS7003;60991;51.278;22.550;2022-12-31T06:07:49;14.50;13.50;9.75
72854;PMS7003;60991;51.278;22.550;2022-12-31T06:09:19;15.67;14.00;8.33
72854;PMS7003;60991;51.278;22.550;2022-12-31T06:10:49;15.25;13.75;8.25
72854;PMS7003;60991;51.278;22.550;2022-12-31T06:12:20;14.00;11.33;7.00
72854;PMS7003;60991;51.278;22.550;2022-12-31T06:13:50;18.00;11.50;7.25
72854;PMS7003;60991;51.278;22.550;2022-12-31T06:15:20;20.50;14.50;10.00
72854;PMS7003;60991;51.278;22.550;2022-12-31T06:16:50;11.67;11.00;8.67
72854;PMS7003;60991;51.278;22.550;2022-12-31T06:18:21;13.00;12.25;8.25
72854;PMS7003;60991;51.278;22.550;2022-12-31T06:19:51;17.25;14.00;8.25
72854;PMS7003;60991;51.278;22.550;2022-12-31T06:21:21;15.67;11.67;8.33
72854;PMS7003;60991;51.278;22.550;2022-12-31T06:22:51;14.25;12.75;7.00
72854;PMS7003;60991;51.278;22.550;2022-12-31T06:24:22;16.50;13.75;10.00
72854;PMS7003;60991;51.278;22.550;2022-12-31T06:25:52;19.75;15.50;10.25
72854;PMS7003;60991;51.278;22.550;2022-12-31T06:27:23;16.67;15.67;10.00
72854;PMS7003;60991;51.278;22.550;2022-12-31T06:28:53;15.00;14.00;10.00
72854;PMS7003;60991;51.278;22.550;2022-12-31T06:30:23;6.50;6.00;1.50
72854;PMS7003;60991;51.278;22.550;2022-12-31T06:31:53;13.00;10.33;8.33
72854;PMS7003;60991;51.278;22.550;2022-12-31T06:33:26;14.75;14.75;8.25
72854;PMS7003;60991;51.278;22.550;2022-12-31T06:34:57;12.75;12.75;7.50
72854;PMS7003;60991;51.278;22.550;2022-12-31T06:36:27;17.00;14.33;7.00
72854;PMS7003;60991;51.278;22.550;2022-12-31T06:37:57;14.50;11.75;8.25
72854;PMS7003;60991;51.278;22.550;2022-12-31T06:39:28;24.50;13.75;10.75
72854;PMS7003;60991;51.278;22.550;2022-12-31T06:41:08;16.25;15.75;8.25
72854;PMS7003;60991;51.278;22.550;2022-12-31T06:42:41;12.50;12.25;8.50
72854;PMS7003;60991;51.278;22.550;2022-12-31T06:44:11;15.00;14.75;9.50
72854;PMS7003;60991;51.278;22.550;2022-12-31T06:45:41;14.67;13.33;10.00
72854;PMS7003;60991;51.278;22.550;2022-12-31T06:47:11;15.75;10.75;4.75
72854;PMS7003;60991;51.278;22.550;2022-12-31T06:48:42;14.67;10.00;6.00
72854;PMS7003;60991;51.278;22.550;2022-12-31T06:50:13;11.50;11.50;7.00
72854;PMS7003;60991;51.278;22.550;2022-12-31T06:51:43;15.25;12.50;7.50
72854;PMS7003;60991;51.278;22.550;2022-12-31T06:53:14;16.33;13.33;9.00
72854;PMS7003;60991;51.278;22.550;2022-12-31T06:54:44;15.50;14.00;10.25
72854;PMS7003;60991;51.278;22.550;2022-12-31T06:56:15;22.25;20.25;11.25
72854;PMS7003;60991;51.278;22.550;2022-12-31T06:57:48;23.00;16.50;8.50
72854;PMS7003;60991;51.278;22.550;2022-12-31T06:59:25;16.50;12.25;8.50
72854;PMS7003;60991;51.278;22.550;2022-12-31T07:01:09;19.75;15.25;8.25
72854;PMS7003;60991;51.278;22.550;2022-12-31T07:12:08;17.25;13.00;9.00
72854;PMS7003;60991;51.278;22.550;2022-12-31T07:13:55;11.00;9.25;5.75
72854;PMS7003;60991;51.278;22.550;2022-12-31T07:15:34;11.25;11.25;6.50
72854;PMS7003;60991;51.278;22.550;2022-12-31T07:17:43;17.25;15.25;10.50
72854;PMS7003;60991;51.278;22.550;2022-12-31T07:19:28;12.25;10.25;7.25
72854;PMS7003;60991;51.278;22.550;2022-12-31T07:21:02;12.75;10.00;7.00
72854;PMS7003;60991;51.278;22.550;2022-12-31T07:22:32;18.75;11.75;7.50
72854;PMS7003;60991;51.278;22.550;2022-12-31T07:24:06;10.75;10.75;7.50
72854;PMS7003;60991;51.278;22.550;2022-12-31T07:25:39;16.25;14.25;9.75
72854;PMS7003;60991;51.278;22.550;2022-12-31T07:34:28;16.00;15.25;8.25
72854;PMS7003;60991;51.278;22.550;2022-12-31T07:36:28;18.25;12.00;8.25
72854;PMS7003;60991;51.278;22.550;2022-12-31T07:38:03;12.75;10.75;5.25
72854;PMS7003;60991;51.278;22.550;2022-12-31T07:45:43;17.25;15.25;9.25
72854;PMS7003;60991;51.278;22.550;2022-12-31T07:47:28;11.75;10.50;6.00
72854;PMS7003;60991;51.278;22.550;2022-12-31T07:48:58;17.75;11.25;7.75
72854;PMS7003;60991;51.278;22.550;2022-12-31T07:50:29;11.00;11.00;7.00
72854;PMS7003;60991;51.278;22.550;2022-12-31T07:52:00;18.00;12.50;8.00
72854;PMS7003;60991;51.278;22.550;2022-12-31T07:53:30;13.75;12.00;8.00
72854;PMS7003;60991;51.278;22.550;2022-12-31T07:55:00;16.25;15.75;8.00
72854;PMS7003;60991;51.278;22.550;2022-12-31T07:56:31;13.00;10.67;7.00
72854;PMS7003;60991;51.278;22.550;2022-12-31T07:58:06;14.75;11.00;7.00
72854;PMS7003;60991;51.278;22.550;2022-12-31T08:05:15;10.25;10.25;6.50
72854;PMS7003;60991;51.278;22.550;2022-12-31T08:10:51;14.75;12.00;7.00
72854;PMS7003;60991;51.278;22.550;2022-12-31T08:12:32;20.75;12.50;8.00
72854;PMS7003;60991;51.278;22.550;2022-12-31T08:14:04;12.00;8.75;6.50
72854;PMS7003;60991;51.278;22.550;2022-12-31T08:15:39;13.00;11.50;7.00
72854;PMS7003;60991;51.278;22.550;2022-12-31T08:17:14;12.75;11.00;7.00
72854;PMS7003;60991;51.278;22.550;2022-12-31T08:18:46;15.25;10.75;6.50
72854;PMS7003;60991;51.278;22.550;2022-12-31T08:20:16;13.25;13.00;8.00
72854;PMS7003;60991;51.278;22.550;2022-12-31T08:27:59;12.00;11.25;6.00
72854;PMS7003;60991;51.278;22.550;2022-12-31T08:31:03;15.00;12.25;8.00
72854;PMS7003;60991;51.278;22.550;2022-12-31T08:34:31;12.75;10.50;6.25
72854;PMS7003;60991;51.278;22.550;2022-12-31T08:36:12;14.75;12.75;9.25
72854;PMS7003;60991;51.278;22.550;2022-12-31T08:38:05;11.50;11.50;7.75
72854;PMS7003;60991;51.278;22.550;2022-12-31T08:39:55;10.25;10.25;6.50
72854;PMS7003;60991;51.278;22.550;2022-12-31T08:43:32;7.25;7.25;5.75
72854;PMS7003;60991;51.278;22.550;2022-12-31T08:48:48;13.50;11.50;8.00
72854;PMS7003;60991;51.278;22.550;2022-12-31T08:50:18;12.25;9.50;6.50
72854;PMS7003;60991;51.278;22.550;2022-12-31T08:51:49;12.75;11.25;7.00
72854;PMS7003;60991;51.278;22.550;2022-12-31T08:53:20;11.00;9.25;7.00
72854;PMS7003;60991;51.278;22.550;2022-12-31T08:54:50;7.00;7.00;3.50
72854;PMS7003;60991;51.278;22.550;2022-12-31T08:56:24;17.50;11.75;7.75
72854;PMS7003;60991;51.278;22.550;2022-12-31T09:01:23;13.75;11.25;7.50
72854;PMS7003;60991;51.278;22.550;2022-12-31T09:04:59;12.50;10.75;7.00
72854;PMS7003;60991;51.278;22.550;2022-12-31T09:06:33;16.75;10.50;7.00
72854;PMS7003;60991;51.278;22.550;2022-12-31T09:15:41;17.00;11.75;7.00
72854;PMS7003;60991;51.278;22.550;2022-12-31T09:18:53;16.50;12.50;7.50
72854;PMS7003;60991;51.278;22.550;2022-12-31T09:20:24;8.25;7.00;3.00
72854;PMS7003;60991;51.278;22.550;2022-12-31T09:22:00;12.25;11.25;7.25
72854;PMS7003;60991;51.278;22.550;2022-12-31T09:23:30;12.25;12.00;8.00
72854;PMS7003;60991;51.278;22.550;2022-12-31T09:25:01;12.50;12.00;8.00
72854;PMS7003;60991;51.278;22.550;2022-12-31T09:30:22;14.75;11.75;8.00
72854;PMS7003;60991;51.278;22.550;2022-12-31T09:33:45;17.00;16.25;11.00
72854;PMS7003;60991;51.278;22.550;2022-12-31T09:35:28;12.75;11.50;8.50
72854;PMS7003;60991;51.278;22.550;2022-12-31T09:37:35;22.50;14.50;8.25
72854;PMS7003;60991;51.278;22.550;2022-12-31T09:40:54;14.00;12.00;8.25
72854;PMS7003;60991;51.278;22.550;2022-12-31T09:46:28;19.25;14.50;10.75
72854;PMS7003;60991;51.278;22.550;2022-12-31T09:59:22;11.75;11.75;9.00
72854;PMS7003;60991;51.278;22.550;2022-12-31T10:06:22;13.50;13.50;9.00
72854;PMS7003;60991;51.278;22.550;2022-12-31T10:08:12;16.00;15.75;9.00
72854;PMS7003;60991;51.278;22.550;2022-12-31T10:15:55;13.00;11.25;7.25
72854;PMS7003;60991;51.278;22.550;2022-12-31T10:20:59;14.00;13.50;8.00
72854;PMS7003;60991;51.278;22.550;2022-12-31T10:24:55;13.25;13.25;8.75
72854;PMS7003;60991;51.278;22.550;2022-12-31T10:28:52;17.25;10.25;8.00
72854;PMS7003;60991;51.278;22.550;2022-12-31T10:30:26;14.25;12.00;8.50
72854;PMS7003;60991;51.278;22.550;2022-12-31T10:32:27;19.00;15.25;8.50
72854;PMS7003;60991;51.278;22.550;2022-12-31T10:34:30;8.25;8.25;7.00
72854;PMS7003;60991;51.278;22.550;2022-12-31T10:36:18;13.00;8.25;6.25
72854;PMS7003;60991;51.278;22.550;2022-12-31T10:39:42;12.50;11.75;8.25
72854;PMS7003;60991;51.278;22.550;2022-12-31T10:41:21;14.00;11.25;7.75
72854;PMS7003;60991;51.278;22.550;2022-12-31T10:45:17;10.50;9.00;6.00
72854;PMS7003;60991;51.278;22.550;2022-12-31T10:56:55;13.25;12.25;6.00